sensor_id;sensor_type;location;lat;lon;timestamp;P1;durP1;ratioP1;P2;durP2;ratioP2
21675;SDS011;10999;51.332;9.458;2023-04-08T00:01:46;10.25;;;5.00;;
21675;SDS011;10999;51.332;9.458;2023-04-08T00:04:13;12.20;;;5.32;;
21675;SDS011;10999;51.332;9.458;2023-04-08T00:06:40;12.25;;;5.10;;
21675;SDS011;10999;51.332;9.458;2023-04-08T00:09:07;12.38;;;5.00;;
21675;SDS011;10999;51.332;9.458;2023-04-08T00:11:34;9.95;;;4.68;;
21675;SDS011;10999;51.332;9.458;2023-04-08T00:14:01;10.98;;;4.97;;
21675;SDS011;10999;51.332;9.458;2023-04-08T00:16:29;15.15;;;5.10;;
21675;SDS011;10999;51.332;9.458;2023-04-08T00:18:56;11.15;;;5.35;;
21675;SDS011;10999;51.332;9.458;2023-04-08T00:21:23;13.20;;;5.05;;
21675;SDS011;10999;51.332;9.458;2023-04-08T00:23:49;10.35;;;4.65;;
21675;SDS011;10999;51.332;9.458;2023-04-08T00:26:16;12.35;;;4.68;;
21675;SDS011;10999;51.332;9.458;2023-04-08T00:28:43;12.77;;;4.90;;
21675;SDS011;10999;51.332;9.458;2023-04-08T00:31:10;13.90;;;4.82;;
21675;SDS011;10999;51.332;9.458;2023-04-08T00:33:37;9.82;;;4.00;;
21675;SDS011;10999;51.332;9.458;2023-04-08T00:36:03;9.15;;;4.30;;
21675;SDS011;10999;51.332;9.458;2023-04-08T00:38:30;11.20;;;4.53;;
21675;SDS011;10999;51.332;9.458;2023-04-08T00:40:57;10.65;;;4.25;;
21675;SDS011;10999;51.332;9.458;2023-04-08T00:43:23;14.25;;;5.07;;
21675;SDS011;10999;51.332;9.458;2023-04-08T00:45:50;10.00;;;4.35;;
21675;SDS011;10999;51.332;9.458;2023-04-08T00:48:17;12.05;;;5.28;;
21675;SDS011;10999;51.332;9.458;2023-04-08T00:50:44;8.45;;;4.40;;
21675;SDS011;10999;51.332;9.458;2023-04-08T00:53:14;11.75;;;4.43;;
21675;SDS011;10999;51.332;9.458;2023-04-08T00:55:43;9.52;;;4.07;;
21675;SDS011;10999;51.332;9.458;2023-04-08T00:58:10;9.43;;;4.05;;
21675;SDS011;10999;51.332;9.458;2023-04-08T01:00:39;12.60;;;4.63;;
21675;SDS011;10999;51.332;9.458;2023-04-08T01:08:25;9.77;;;4.70;;
21675;SDS011;10999;51.332;9.458;2023-04-08T01:10:56;10.80;;;4.45;;
21675;SDS011;10999;51.332;9.458;2023-04-08T01:13:26;11.32;;;4.43;;
21675;SDS011;10999;51.332;9.458;2023-04-08T01:15:59;11.07;;;5.25;;
21675;SDS011;10999;51.332;9.458;2023-04-08T01:18:26;9.75;;;4.65;;
21675;SDS011;10999;51.332;9.458;2023-04-08T01:20:56;13.18;;;4.70;;
21675;SDS011;10999;51.332;9.458;2023-04-08T01:26:24;11.30;;;4.80;;
21675;SDS011;10999;51.332;9.458;2023-04-08T01:28:55;10.77;;;4.38;;
21675;SDS011;10999;51.332;9.458;2023-04-08T01:31:24;12.25;;;4.82;;
21675;SDS011;10999;51.332;9.458;2023-04-08T01:33:52;11.95;;;5.60;;
21675;SDS011;10999;51.332;9.458;2023-04-08T01:36:20;12.93;;;4.25;;
21675;SDS011;10999;51.332;9.458;2023-04-08T01:38:49;12.00;;;4.97;;
21675;SDS011;10999;51.332;9.458;2023-04-08T01:41:17;13.35;;;5.10;;
21675;SDS011;10999;51.332;9.458;2023-04-08T01:43:44;10.90;;;4.78;;
21675;SDS011;10999;51.332;9.458;2023-04-08T01:46:11;11.13;;;4.30;;
21675;SDS011;10999;51.332;9.458;2023-04-08T01:48:39;7.47;;;3.50;;
21675;SDS011;10999;51.332;9.458;2023-04-08T01:51:06;7.97;;;3.65;;
21675;SDS011;10999;51.332;9.458;2023-04-08T01:53:34;9.68;;;4.13;;
21675;SDS011;10999;51.332;9.458;2023-04-08T01:56:03;9.88;;;3.83;;
21675;SDS011;10999;51.332;9.458;2023-04-08T01:58:36;8.82;;;3.25;;
21675;SDS011;10999;51.332;9.458;2023-04-08T02:01:16;8.07;;;3.38;;
21675;SDS011;10999;51.332;9.458;2023-04-08T02:03:46;9.35;;;3.35;;
21675;SDS011;10999;51.332;9.458;2023-04-08T02:06:14;9.57;;;3.60;;
21675;SDS011;10999;51.332;9.458;2023-04-08T02:08:40;9.00;;;3.28;;
21675;SDS011;10999;51.332;9.458;2023-04-08T02:11:07;10.02;;;3.63;;
21675;SDS011;10999;51.332;9.458;2023-04-08T02:13:34;9.88;;;3.67;;
21675;SDS011;10999;51.332;9.458;2023-04-08T02:16:15;8.20;;;3.10;;
21675;SDS011;10999;51.332;9.458;2023-04-08T02:18:52;8.35;;;3.25;;
21675;SDS011;10999;51.332;9.458;2023-04-08T02:21:28;9.75;;;3.53;;
21675;SDS011;10999;51.332;9.458;2023-04-08T02:23:58;7.68;;;3.35;;
21675;SDS011;10999;51.332;9.458;2023-04-08T02:26:29;9.05;;;3.63;;
21675;SDS011;10999;51.332;9.458;2023-04-08T02:29:01;8.20;;;3.30;;
21675;SDS011;10999;51.332;9.458;2023-04-08T02:31:30;10.63;;;3.40;;
21675;SDS011;10999;51.332;9.458;2023-04-08T02:33:58;7.68;;;3.42;;
21675;SDS011;10999;51.332;9.458;2023-04-08T02:36:25;6.55;;;2.67;;
21675;SDS011;10999;51.332;9.458;2023-04-08T02:38:52;8.10;;;3.05;;
21675;SDS011;10999;51.332;9.458;2023-04-08T02:41:19;9.48;;;3.22;;
21675;SDS011;10999;51.332;9.458;2023-04-08T02:43:46;8.50;;;2.80;;
21675;SDS011;10999;51.332;9.458;2023-04-08T02:46:13;11.80;;;3.10;;
21675;SDS011;10999;51.332;9.458;2023-04-08T02:48:40;8.57;;;3.08;;
21675;SDS011;10999;51.332;9.458;2023-04-08T02:51:07;7.13;;;2.90;;
21675;SDS011;10999;51.332;9.458;2023-04-08T02:53:34;8.32;;;3.15;;
21675;SDS011;10999;51.332;9.458;2023-04-08T02:56:01;7.45;;;2.88;;
21675;SDS011;10999;51.332;9.458;2023-04-08T02:58:27;7.28;;;2.80;;
21675;SDS011;10999;51.332;9.458;2023-04-08T03:00:54;8.13;;;3.08;;
21675;SDS011;10999;51.332;9.458;2023-04-08T03:03:21;9.75;;;3.10;;
21675;SDS011;10999;51.332;9.458;2023-04-08T03:05:55;8.35;;;3.22;;
21675;SDS011;10999;51.332;9.458;2023-04-08T03:08:22;8.80;;;3.28;;
21675;SDS011;10999;51.332;9.458;2023-04-08T03:10:49;8.57;;;3.60;;
21675;SDS011;10999;51.332;9.458;2023-04-08T03:13:16;8.93;;;3.42;;
21675;SDS011;10999;51.332;9.458;2023-04-08T03:15:42;9.45;;;3.45;;
21675;SDS011;10999;51.332;9.458;2023-04-08T03:18:09;8.35;;;4.13;;
21675;SDS011;10999;51.332;9.458;2023-04-08T03:20:36;8.50;;;2.90;;
21675;SDS011;10999;51.332;9.458;2023-04-08T03:23:03;12.32;;;3.50;;
21675;SDS011;10999;51.332;9.458;2023-04-08T03:25:29;7.18;;;3.10;;
21675;SDS011;10999;51.332;9.458;2023-04-08T03:27:57;9.18;;;3.70;;
21675;SDS011;10999;51.332;9.458;2023-04-08T03:30:24;10.20;;;3.28;;
21675;SDS011;10999;51.332;9.458;2023-04-08T03:32:51;9.05;;;3.92;;
21675;SDS011;10999;51.332;9.458;2023-04-08T03:35:18;7.28;;;3.30;;
21675;SDS011;10999;51.332;9.458;2023-04-08T03:37:45;10.30;;;4.20;;
21675;SDS011;10999;51.332;9.458;2023-04-08T03:40:12;10.00;;;3.63;;
21675;SDS011;10999;51.332;9.458;2023-04-08T03:42:39;8.63;;;2.92;;
21675;SDS011;10999;51.332;9.458;2023-04-08T03:45:06;8.88;;;3.33;;
21675;SDS011;10999;51.332;9.458;2023-04-08T03:47:33;9.65;;;3.20;;
21675;SDS011;10999;51.332;9.458;2023-04-08T03:49:59;8.82;;;3.65;;
21675;SDS011;10999;51.332;9.458;2023-04-08T03:52:26;7.78;;;3.10;;
21675;SDS011;10999;51.332;9.458;2023-04-08T03:54:53;7.75;;;3.30;;
21675;SDS011;10999;51.332;9.458;2023-04-08T03:57:19;7.10;;;3.30;;
21675;SDS011;10999;51.332;9.458;2023-04-08T03:59:46;9.02;;;3.90;;
21675;SDS011;10999;51.332;9.458;2023-04-08T04:02:13;8.98;;;4.18;;
21675;SDS011;10999;51.332;9.458;2023-04-08T04:04:40;9.68;;;4.15;;
21675;SDS011;10999;51.332;9.458;2023-04-08T04:07:06;10.50;;;4.45;;
21675;SDS011;10999;51.332;9.458;2023-04-08T04:09:33;8.65;;;3.97;;
21675;SDS011;10999;51.332;9.458;2023-04-08T04:12:00;12.20;;;4.30;;
21675;SDS011;10999;51.332;9.458;2023-04-08T04:14:27;10.85;;;4.35;;
21675;SDS011;10999;51.332;9.458;2023-04-08T04:16:54;10.85;;;4.30;;
21675;SDS011;10999;51.332;9.458;2023-04-08T04:19:20;10.48;;;4.47;;
21675;SDS011;10999;51.332;9.458;2023-04-08T04:21:47;10.60;;;4.80;;
21675;SDS011;10999;51.332;9.458;2023-04-08T04:24:14;9.70;;;4.70;;
21675;SDS011;10999;51.332;9.458;2023-04-08T04:26:41;9.77;;;4.55;;
21675;SDS011;10999;51.332;9.458;2023-04-08T04:29:07;11.27;;;4.85;;
21675;SDS011;10999;51.332;9.458;2023-04-08T04:31:34;11.93;;;4.97;;
21675;SDS011;10999;51.332;9.458;2023-04-08T04:34:01;12.07;;;5.38;;
21675;SDS011;10999;51.332;9.458;2023-04-08T04:36:28;13.57;;;5.32;;
21675;SDS011;10999;51.332;9.458;2023-04-08T04:38:54;11.20;;;5.10;;
21675;SDS011;10999;51.332;9.458;2023-04-08T04:41:22;10.60;;;5.13;;
21675;SDS011;10999;51.332;9.458;2023-04-08T04:43:48;13.07;;;5.97;;
21675;SDS011;10999;51.332;9.458;2023-04-08T04:46:15;11.65;;;5.30;;
21675;SDS011;10999;51.332;9.458;2023-04-08T04:48:42;10.50;;;4.60;;
21675;SDS011;10999;51.332;9.458;2023-04-08T04:51:09;13.23;;;5.35;;
21675;SDS011;10999;51.332;9.458;2023-04-08T04:53:35;9.98;;;4.75;;
21675;SDS011;10999;51.332;9.458;2023-04-08T04:56:02;11.55;;;5.15;;
21675;SDS011;10999;51.332;9.458;2023-04-08T04:58:29;10.93;;;5.22;;
21675;SDS011;10999;51.332;9.458;2023-04-08T05:00:56;12.75;;;5.72;;
21675;SDS011;10999;51.332;9.458;2023-04-08T05:03:23;12.75;;;5.45;;
21675;SDS011;10999;51.332;9.458;2023-04-08T05:05:53;13.25;;;5.80;;
21675;SDS011;10999;51.332;9.458;2023-04-08T05:08:20;15.20;;;5.90;;
21675;SDS011;10999;51.332;9.458;2023-04-08T05:10:47;14.05;;;5.68;;
21675;SDS011;10999;51.332;9.458;2023-04-08T05:13:16;15.60;;;6.15;;
21675;SDS011;10999;51.332;9.458;2023-04-08T05:15:43;11.70;;;5.22;;
21675;SDS011;10999;51.332;9.458;2023-04-08T05:18:13;13.43;;;5.75;;
21675;SDS011;10999;51.332;9.458;2023-04-08T05:20:39;11.75;;;5.95;;
21675;SDS011;10999;51.332;9.458;2023-04-08T05:23:06;14.05;;;6.28;;
21675;SDS011;10999;51.332;9.458;2023-04-08T05:25:33;17.02;;;6.25;;
21675;SDS011;10999;51.332;9.458;2023-04-08T05:28:00;12.88;;;6.35;;
21675;SDS011;10999;51.332;9.458;2023-04-08T05:30:27;15.85;;;6.50;;
21675;SDS011;10999;51.332;9.458;2023-04-08T05:32:54;12.15;;;5.47;;
21675;SDS011;10999;51.332;9.458;2023-04-08T05:35:25;12.18;;;5.85;;
21675;SDS011;10999;51.332;9.458;2023-04-08T05:37:52;13.15;;;5.90;;
21675;SDS011;10999;51.332;9.458;2023-04-08T05:40:18;14.07;;;6.10;;
21675;SDS011;10999;51.332;9.458;2023-04-08T05:42:45;14.18;;;6.03;;
21675;SDS011;10999;51.332;9.458;2023-04-08T05:45:12;14.40;;;7.00;;
21675;SDS011;10999;51.332;9.458;2023-04-08T05:47:38;14.13;;;6.57;;
21675;SDS011;10999;51.332;9.458;2023-04-08T05:50:05;15.10;;;6.55;;
21675;SDS011;10999;51.332;9.458;2023-04-08T05:52:33;15.45;;;6.50;;
21675;SDS011;10999;51.332;9.458;2023-04-08T05:54:59;13.75;;;6.55;;
21675;SDS011;10999;51.332;9.458;2023-04-08T05:57:26;13.38;;;5.93;;
21675;SDS011;10999;51.332;9.458;2023-04-08T05:59:53;13.05;;;6.45;;
21675;SDS011;10999;51.332;9.458;2023-04-08T06:02:19;14.80;;;7.20;;
21675;SDS011;10999;51.332;9.458;2023-04-08T06:04:46;16.17;;;7.25;;
21675;SDS011;10999;51.332;9.458;2023-04-08T06:07:13;14.88;;;7.63;;
21675;SDS011;10999;51.332;9.458;2023-04-08T06:09:40;16.75;;;7.10;;
21675;SDS011;10999;51.332;9.458;2023-04-08T06:12:10;16.30;;;6.75;;
21675;SDS011;10999;51.332;9.458;2023-04-08T06:14:36;16.65;;;7.18;;
21675;SDS011;10999;51.332;9.458;2023-04-08T06:17:03;16.38;;;7.63;;
21675;SDS011;10999;51.332;9.458;2023-04-08T06:19:30;18.65;;;8.48;;
21675;SDS011;10999;51.332;9.458;2023-04-08T06:21:56;17.20;;;8.00;;
21675;SDS011;10999;51.332;9.458;2023-04-08T06:24:24;19.17;;;8.10;;
21675;SDS011;10999;51.332;9.458;2023-04-08T06:26:52;22.15;;;8.82;;
21675;SDS011;10999;51.332;9.458;2023-04-08T06:29:19;16.88;;;7.40;;
21675;SDS011;10999;51.332;9.458;2023-04-08T06:31:47;19.48;;;8.77;;
21675;SDS011;10999;51.332;9.458;2023-04-08T06:34:14;22.08;;;8.90;;
21675;SDS011;10999;51.332;9.458;2023-04-08T06:36:41;18.92;;;8.25;;
21675;SDS011;10999;51.332;9.458;2023-04-08T06:39:09;19.52;;;8.65;;
21675;SDS011;10999;51.332;9.458;2023-04-08T06:41:35;21.00;;;9.07;;
21675;SDS011;10999;51.332;9.458;2023-04-08T06:44:02;17.98;;;9.07;;
21675;SDS011;10999;51.332;9.458;2023-04-08T06:46:29;21.70;;;8.52;;
21675;SDS011;10999;51.332;9.458;2023-04-08T06:48:55;19.55;;;9.30;;
21675;SDS011;10999;51.332;9.458;2023-04-08T06:51:22;19.90;;;8.95;;
21675;SDS011;10999;51.332;9.458;2023-04-08T06:53:49;20.48;;;8.43;;
21675;SDS011;10999;51.332;9.458;2023-04-08T06:56:15;20.75;;;9.13;;
21675;SDS011;10999;51.332;9.458;2023-04-08T06:58:42;19.30;;;8.38;;
21675;SDS011;10999;51.332;9.458;2023-04-08T07:01:09;22.55;;;10.70;;
21675;SDS011;10999;51.332;9.458;2023-04-08T07:03:36;24.58;;;9.48;;
21675;SDS011;10999;51.332;9.458;2023-04-08T07:06:03;26.77;;;10.07;;
21675;SDS011;10999;51.332;9.458;2023-04-08T07:08:30;23.77;;;9.48;;
21675;SDS011;10999;51.332;9.458;2023-04-08T07:10:56;22.98;;;9.38;;
21675;SDS011;10999;51.332;9.458;2023-04-08T07:13:23;23.17;;;9.60;;
21675;SDS011;10999;51.332;9.458;2023-04-08T07:15:50;25.38;;;9.90;;
21675;SDS011;10999;51.332;9.458;2023-04-08T07:18:17;24.00;;;11.18;;
21675;SDS011;10999;51.332;9.458;2023-04-08T07:20:43;27.23;;;11.00;;
21675;SDS011;10999;51.332;9.458;2023-04-08T07:23:10;27.17;;;11.27;;
21675;SDS011;10999;51.332;9.458;2023-04-08T07:25:37;25.23;;;10.63;;
21675;SDS011;10999;51.332;9.458;2023-04-08T07:28:03;25.23;;;10.70;;
21675;SDS011;10999;51.332;9.458;2023-04-08T07:30:30;26.60;;;10.23;;
21675;SDS011;10999;51.332;9.458;2023-04-08T07:32:57;26.08;;;10.43;;
21675;SDS011;10999;51.332;9.458;2023-04-08T07:35:26;20.58;;;10.23;;
21675;SDS011;10999;51.332;9.458;2023-04-08T07:37:53;21.80;;;9.10;;
21675;SDS011;10999;51.332;9.458;2023-04-08T07:40:20;25.25;;;11.02;;
21675;SDS011;10999;51.332;9.458;2023-04-08T07:42:46;22.00;;;8.95;;
21675;SDS011;10999;51.332;9.458;2023-04-08T07:45:14;22.70;;;9.50;;
21675;SDS011;10999;51.332;9.458;2023-04-08T07:47:41;23.33;;;9.35;;
21675;SDS011;10999;51.332;9.458;2023-04-08T07:50:08;22.80;;;9.35;;
21675;SDS011;10999;51.332;9.458;2023-04-08T07:52:34;20.15;;;8.13;;
21675;SDS011;10999;51.332;9.458;2023-04-08T07:55:01;22.42;;;9.40;;
21675;SDS011;10999;51.332;9.458;2023-04-08T07:57:28;20.08;;;9.20;;
21675;SDS011;10999;51.332;9.458;2023-04-08T07:59:55;18.48;;;8.00;;
21675;SDS011;10999;51.332;9.458;2023-04-08T08:02:22;18.92;;;8.45;;
21675;SDS011;10999;51.332;9.458;2023-04-08T08:04:49;19.10;;;8.85;;
21675;SDS011;10999;51.332;9.458;2023-04-08T08:07:16;20.27;;;9.38;;
21675;SDS011;10999;51.332;9.458;2023-04-08T08:09:43;21.88;;;8.70;;
21675;SDS011;10999;51.332;9.458;2023-04-08T08:12:10;23.15;;;9.07;;
21675;SDS011;10999;51.332;9.458;2023-04-08T08:14:37;18.95;;;8.93;;
21675;SDS011;10999;51.332;9.458;2023-04-08T08:17:03;21.77;;;8.93;;
21675;SDS011;10999;51.332;9.458;2023-04-08T08:19:30;20.20;;;9.48;;
21675;SDS011;10999;51.332;9.458;2023-04-08T08:21:57;20.70;;;8.30;;
21675;SDS011;10999;51.332;9.458;2023-04-08T08:24:24;20.63;;;8.52;;
21675;SDS011;10999;51.332;9.458;2023-04-08T08:26:51;19.02;;;8.57;;
21675;SDS011;10999;51.332;9.458;2023-04-08T08:29:18;20.38;;;8.77;;
21675;SDS011;10999;51.332;9.458;2023-04-08T08:31:44;17.90;;;8.32;;
21675;SDS011;10999;51.332;9.458;2023-04-08T08:34:13;19.05;;;8.65;;
21675;SDS011;10999;51.332;9.458;2023-04-08T08:36:40;20.77;;;8.02;;
21675;SDS011;10999;51.332;9.458;2023-04-08T08:39:07;16.60;;;7.28;;
21675;SDS011;10999;51.332;9.458;2023-04-08T08:41:34;19.00;;;8.00;;
21675;SDS011;10999;51.332;9.458;2023-04-08T08:44:06;16.95;;;7.45;;
21675;SDS011;10999;51.332;9.458;2023-04-08T08:46:35;15.93;;;7.43;;
21675;SDS011;10999;51.332;9.458;2023-04-08T08:49:01;18.52;;;7.68;;
21675;SDS011;10999;51.332;9.458;2023-04-08T08:51:28;15.27;;;7.95;;
21675;SDS011;10999;51.332;9.458;2023-04-08T08:54:00;16.45;;;7.10;;
21675;SDS011;10999;51.332;9.458;2023-04-08T08:56:27;18.48;;;8.18;;
21675;SDS011;10999;51.332;9.458;2023-04-08T08:58:54;17.65;;;7.50;;
21675;SDS011;10999;51.332;9.458;2023-04-08T09:01:31;16.63;;;7.60;;
21675;SDS011;10999;51.332;9.458;2023-04-08T09:06:46;17.48;;;7.43;;
21675;SDS011;10999;51.332;9.458;2023-04-08T09:09:15;15.05;;;6.65;;
21675;SDS011;10999;51.332;9.458;2023-04-08T09:11:43;13.68;;;6.13;;
21675;SDS011;10999;51.332;9.458;2023-04-08T09:14:18;16.80;;;6.60;;
21675;SDS011;10999;51.332;9.458;2023-04-08T09:16:45;15.30;;;6.45;;
21675;SDS011;10999;51.332;9.458;2023-04-08T09:19:12;15.80;;;6.80;;
21675;SDS011;10999;51.332;9.458;2023-04-08T09:21:39;15.55;;;6.60;;
21675;SDS011;10999;51.332;9.458;2023-04-08T09:24:07;17.13;;;6.72;;
21675;SDS011;10999;51.332;9.458;2023-04-08T09:26:34;14.35;;;6.78;;
21675;SDS011;10999;51.332;9.458;2023-04-08T09:31:53;15.20;;;6.72;;
21675;SDS011;10999;51.332;9.458;2023-04-08T09:34:25;12.68;;;5.53;;
21675;SDS011;10999;51.332;9.458;2023-04-08T09:36:53;14.85;;;6.68;;
21675;SDS011;10999;51.332;9.458;2023-04-08T09:39:20;15.63;;;6.70;;
21675;SDS011;10999;51.332;9.458;2023-04-08T09:41:48;15.20;;;6.38;;
21675;SDS011;10999;51.332;9.458;2023-04-08T09:44:17;14.70;;;5.45;;
21675;SDS011;10999;51.332;9.458;2023-04-08T09:57:24;16.83;;;7.35;;
21675;SDS011;10999;51.332;9.458;2023-04-08T10:00:21;16.45;;;7.10;;
21675;SDS011;10999;51.332;9.458;2023-04-08T10:02:55;18.65;;;7.47;;
21675;SDS011;10999;51.332;9.458;2023-04-08T10:05:46;18.77;;;7.70;;
21675;SDS011;10999;51.332;9.458;2023-04-08T10:08:14;21.50;;;8.55;;
21675;SDS011;10999;51.332;9.458;2023-04-08T10:10:41;19.17;;;7.70;;
21675;SDS011;10999;51.332;9.458;2023-04-08T10:13:11;18.08;;;7.38;;
21675;SDS011;10999;51.332;9.458;2023-04-08T10:15:38;17.10;;;6.93;;
21675;SDS011;10999;51.332;9.458;2023-04-08T10:23:06;16.20;;;6.07;;
21675;SDS011;10999;51.332;9.458;2023-04-08T10:33:22;17.08;;;7.30;;
21675;SDS011;10999;51.332;9.458;2023-04-08T10:35:59;18.52;;;7.97;;
21675;SDS011;10999;51.332;9.458;2023-04-08T10:38:31;21.15;;;8.13;;
21675;SDS011;10999;51.332;9.458;2023-04-08T10:40:58;19.48;;;6.95;;
21675;SDS011;10999;51.332;9.458;2023-04-08T10:43:25;18.98;;;7.78;;
21675;SDS011;10999;51.332;9.458;2023-04-08T10:45:59;21.48;;;8.55;;
21675;SDS011;10999;51.332;9.458;2023-04-08T10:48:26;22.17;;;8.93;;
21675;SDS011;10999;51.332;9.458;2023-04-08T10:50:57;19.42;;;7.72;;
21675;SDS011;10999;51.332;9.458;2023-04-08T10:55:53;18.08;;;7.07;;
21675;SDS011;10999;51.332;9.458;2023-04-08T10:58:28;22.05;;;8.18;;
21675;SDS011;10999;51.332;9.458;2023-04-08T11:01:01;20.08;;;8.32;;
21675;SDS011;10999;51.332;9.458;2023-04-08T11:03:30;18.60;;;7.57;;
21675;SDS011;10999;51.332;9.458;2023-04-08T11:06:13;23.80;;;9.23;;
21675;SDS011;10999;51.332;9.458;2023-04-08T11:08:40;23.63;;;9.80;;
21675;SDS011;10999;51.332;9.458;2023-04-08T11:11:07;25.75;;;10.02;;
21675;SDS011;10999;51.332;9.458;2023-04-08T11:13:36;29.48;;;13.10;;
21675;SDS011;10999;51.332;9.458;2023-04-08T11:16:09;34.35;;;13.57;;
21675;SDS011;10999;51.332;9.458;2023-04-08T11:18:43;36.70;;;14.02;;
21675;SDS011;10999;51.332;9.458;2023-04-08T11:21:11;31.98;;;14.15;;
21675;SDS011;10999;51.332;9.458;2023-04-08T11:23:37;45.00;;;17.10;;
21675;SDS011;10999;51.332;9.458;2023-04-08T11:26:04;24.23;;;10.77;;
21675;SDS011;10999;51.332;9.458;2023-04-08T11:28:32;24.20;;;10.80;;
21675;SDS011;10999;51.332;9.458;2023-04-08T11:31:00;22.95;;;8.68;;
21675;SDS011;10999;51.332;9.458;2023-04-08T11:33:31;20.77;;;8.30;;
21675;SDS011;10999;51.332;9.458;2023-04-08T11:35:59;23.67;;;8.93;;
21675;SDS011;10999;51.332;9.458;2023-04-08T11:38:29;21.73;;;8.60;;
21675;SDS011;10999;51.332;9.458;2023-04-08T11:40:56;24.42;;;11.40;;
21675;SDS011;10999;51.332;9.458;2023-04-08T11:43:24;28.48;;;11.32;;
21675;SDS011;10999;51.332;9.458;2023-04-08T11:45:52;25.73;;;11.48;;
21675;SDS011;10999;51.332;9.458;2023-04-08T11:48:18;28.77;;;12.30;;
21675;SDS011;10999;51.332;9.458;2023-04-08T11:50:45;26.98;;;12.68;;
21675;SDS011;10999;51.332;9.458;2023-04-08T11:55:47;26.63;;;11.10;;
21675;SDS011;10999;51.332;9.458;2023-04-08T11:58:14;24.85;;;10.60;;
21675;SDS011;10999;51.332;9.458;2023-04-08T12:00:41;26.00;;;10.73;;
21675;SDS011;10999;51.332;9.458;2023-04-08T12:03:08;26.40;;;12.02;;
21675;SDS011;10999;51.332;9.458;2023-04-08T12:05:36;26.40;;;11.35;;
21675;SDS011;10999;51.332;9.458;2023-04-08T12:08:03;30.90;;;11.90;;
21675;SDS011;10999;51.332;9.458;2023-04-08T12:10:30;24.95;;;11.38;;
21675;SDS011;10999;51.332;9.458;2023-04-08T12:12:57;25.33;;;10.93;;
21675;SDS011;10999;51.332;9.458;2023-04-08T12:15:23;25.23;;;11.18;;
21675;SDS011;10999;51.332;9.458;2023-04-08T12:17:50;29.52;;;11.82;;
21675;SDS011;10999;51.332;9.458;2023-04-08T12:20:17;26.58;;;11.15;;
21675;SDS011;10999;51.332;9.458;2023-04-08T12:22:44;24.23;;;10.02;;
21675;SDS011;10999;51.332;9.458;2023-04-08T12:25:10;27.30;;;10.80;;
21675;SDS011;10999;51.332;9.458;2023-04-08T12:27:37;23.13;;;9.43;;
21675;SDS011;10999;51.332;9.458;2023-04-08T12:30:04;25.25;;;10.48;;
21675;SDS011;10999;51.332;9.458;2023-04-08T12:32:31;25.88;;;10.90;;
21675;SDS011;10999;51.332;9.458;2023-04-08T12:34:58;25.63;;;11.35;;
21675;SDS011;10999;51.332;9.458;2023-04-08T12:37:25;27.27;;;11.15;;
21675;SDS011;10999;51.332;9.458;2023-04-08T12:39:53;26.98;;;10.05;;
21675;SDS011;10999;51.332;9.458;2023-04-08T12:42:19;27.05;;;11.13;;
21675;SDS011;10999;51.332;9.458;2023-04-08T12:44:46;26.77;;;10.07;;
21675;SDS011;10999;51.332;9.458;2023-04-08T12:47:13;27.40;;;11.57;;
21675;SDS011;10999;51.332;9.458;2023-04-08T12:49:40;24.40;;;10.38;;
21675;SDS011;10999;51.332;9.458;2023-04-08T12:52:15;25.58;;;10.60;;
21675;SDS011;10999;51.332;9.458;2023-04-08T12:54:43;28.55;;;10.73;;
21675;SDS011;10999;51.332;9.458;2023-04-08T12:57:09;26.27;;;10.73;;
21675;SDS011;10999;51.332;9.458;2023-04-08T12:59:36;24.65;;;10.43;;
21675;SDS011;10999;51.332;9.458;2023-04-08T13:02:05;23.35;;;10.60;;
21675;SDS011;10999;51.332;9.458;2023-04-08T13:04:33;23.85;;;9.98;;
21675;SDS011;10999;51.332;9.458;2023-04-08T13:06:59;25.55;;;10.52;;
21675;SDS011;10999;51.332;9.458;2023-04-08T13:09:26;25.08;;;9.48;;
21675;SDS011;10999;51.332;9.458;2023-04-08T13:11:55;23.40;;;9.45;;
21675;SDS011;10999;51.332;9.458;2023-04-08T13:14:21;26.17;;;10.13;;
21675;SDS011;10999;51.332;9.458;2023-04-08T13:16:48;22.25;;;9.80;;
21675;SDS011;10999;51.332;9.458;2023-04-08T13:19:15;20.65;;;9.73;;
21675;SDS011;10999;51.332;9.458;2023-04-08T13:21:42;24.13;;;10.68;;
21675;SDS011;10999;51.332;9.458;2023-04-08T13:24:11;23.35;;;10.07;;
21675;SDS011;10999;51.332;9.458;2023-04-08T13:26:38;21.73;;;8.90;;
21675;SDS011;10999;51.332;9.458;2023-04-08T13:29:04;22.45;;;9.73;;
21675;SDS011;10999;51.332;9.458;2023-04-08T13:31:31;23.88;;;9.40;;
21675;SDS011;10999;51.332;9.458;2023-04-08T13:33:58;22.50;;;9.02;;
21675;SDS011;10999;51.332;9.458;2023-04-08T13:36:25;22.83;;;9.43;;
21675;SDS011;10999;51.332;9.458;2023-04-08T13:38:54;21.73;;;8.70;;
21675;SDS011;10999;51.332;9.458;2023-04-08T13:41:21;21.05;;;8.52;;
21675;SDS011;10999;51.332;9.458;2023-04-08T13:43:48;22.83;;;8.32;;
21675;SDS011;10999;51.332;9.458;2023-04-08T13:46:15;19.85;;;8.13;;
21675;SDS011;10999;51.332;9.458;2023-04-08T13:48:43;15.57;;;7.30;;
21675;SDS011;10999;51.332;9.458;2023-04-08T13:51:11;19.30;;;7.47;;
21675;SDS011;10999;51.332;9.458;2023-04-08T13:53:38;17.85;;;7.35;;
21675;SDS011;10999;51.332;9.458;2023-04-08T13:56:04;18.27;;;7.88;;
21675;SDS011;10999;51.332;9.458;2023-04-08T13:58:32;17.52;;;7.03;;
21675;SDS011;10999;51.332;9.458;2023-04-08T14:00:58;13.82;;;5.45;;
21675;SDS011;10999;51.332;9.458;2023-04-08T14:03:27;13.70;;;6.18;;
21675;SDS011;10999;51.332;9.458;2023-04-08T14:05:54;13.68;;;5.75;;
21675;SDS011;10999;51.332;9.458;2023-04-08T14:08:23;15.25;;;6.68;;
21675;SDS011;10999;51.332;9.458;2023-04-08T14:10:51;13.77;;;5.47;;
21675;SDS011;10999;51.332;9.458;2023-04-08T14:13:20;11.88;;;5.32;;
21675;SDS011;10999;51.332;9.458;2023-04-08T14:15:47;15.77;;;6.88;;
21675;SDS011;10999;51.332;9.458;2023-04-08T14:18:15;13.65;;;6.55;;
21675;SDS011;10999;51.332;9.458;2023-04-08T14:20:44;14.48;;;5.57;;
21675;SDS011;10999;51.332;9.458;2023-04-08T14:23:11;14.45;;;5.75;;
21675;SDS011;10999;51.332;9.458;2023-04-08T14:25:42;13.73;;;6.03;;
21675;SDS011;10999;51.332;9.458;2023-04-08T14:28:09;13.80;;;5.50;;
21675;SDS011;10999;51.332;9.458;2023-04-08T14:30:36;14.63;;;6.20;;
21675;SDS011;10999;51.332;9.458;2023-04-08T14:33:03;13.32;;;5.22;;
21675;SDS011;10999;51.332;9.458;2023-04-08T14:35:30;12.00;;;5.75;;
21675;SDS011;10999;51.332;9.458;2023-04-08T14:37:58;14.82;;;6.15;;
21675;SDS011;10999;51.332;9.458;2023-04-08T14:40:25;16.25;;;6.38;;
21675;SDS011;10999;51.332;9.458;2023-04-08T14:42:51;14.25;;;5.57;;
21675;SDS011;10999;51.332;9.458;2023-04-08T14:45:19;13.55;;;6.40;;
21675;SDS011;10999;51.332;9.458;2023-04-08T14:47:45;12.45;;;6.40;;
21675;SDS011;10999;51.332;9.458;2023-04-08T14:50:12;14.27;;;6.05;;
21675;SDS011;10999;51.332;9.458;2023-04-08T14:52:39;12.85;;;5.95;;
21675;SDS011;10999;51.332;9.458;2023-04-08T14:55:06;13.10;;;6.13;;
21675;SDS011;10999;51.332;9.458;2023-04-08T14:57:33;13.25;;;5.65;;
21675;SDS011;10999;51.332;9.458;2023-04-08T14:59:59;12.98;;;5.60;;
21675;SDS011;10999;51.332;9.458;2023-04-08T15:02:26;14.05;;;5.97;;
21675;SDS011;10999;51.332;9.458;2023-04-08T15:04:53;13.52;;;6.60;;
21675;SDS011;10999;51.332;9.458;2023-04-08T15:07:20;14.60;;;5.70;;
21675;SDS011;10999;51.332;9.458;2023-04-08T15:09:47;13.15;;;5.78;;
21675;SDS011;10999;51.332;9.458;2023-04-08T15:12:14;14.40;;;6.57;;
21675;SDS011;10999;51.332;9.458;2023-04-08T15:14:41;14.90;;;6.03;;
21675;SDS011;10999;51.332;9.458;2023-04-08T15:17:07;14.23;;;6.40;;
21675;SDS011;10999;51.332;9.458;2023-04-08T15:19:35;15.35;;;7.00;;
21675;SDS011;10999;51.332;9.458;2023-04-08T15:22:02;16.15;;;7.50;;